Latest Coastal Weather Observations for Low Head

IDV60701

Issued at 1:41 pm EST Sunday 25 September 2016 (issued every 10 minutes, with the page automatically refreshed every 10 minutes)

About coastal observations | Map of coastal stations | Coastal observations for VIC | Marine services | Other Formats
Station Details ID: 091293 Name: LOW HEAD Lat: -41.05 Lon: 146.79 Height: 3.0 m
Data from the previous 72 hours. | See also: Recent months at Low Head
Date/Time
EST
Temp
°C
Wind Pressure Rain since
9am
mm
Weather Cloud Vis
km
Sea
Height
m
Swell
Dir  Spd
kts
Gust
kts
hPa Trend Height
m
Period
s
Dir
25/01:30pm 13.8 W 23 26 1005.4 - 0.0 - - - - - - -
25/01:00pm 13.9 WNW 18 24 1005.5 - 0.0 - - - - - - -
25/12:30pm 13.6 W 23 26 1005.4 - 0.0 - - - - - - -
25/12:00pm 13.4 W 22 26 1005.3 - 0.0 - - - - - - -
25/11:30am 13.7 WNW 21 26 1005.3 - 0.0 - - - - - - -
25/11:00am 13.3 W 21 25 1005.2 - 0.0 - - - - - - -
25/10:30am 13.1 WNW 19 22 1005.0 - 0.0 - - - - - - -
25/10:00am 12.7 W 20 23 1005.0 - 0.0 - - - - - - -
25/09:30am 12.4 W 22 25 1004.9 - 0.0 - - - - - - -
25/09:00am 12.0 W 21 25 1004.6 - 2.0 - - - - - - -
25/08:30am 12.0 W 23 27 1004.4 - 2.0 - - - - - - -
25/08:00am 11.9 W 21 26 1004.0 - 2.0 - - - - - - -
25/07:30am 12.0 W 21 25 1003.5 - 2.0 - - - - - - -
25/07:00am 11.9 W 23 27 1003.3 - 2.0 - - - - - - -
25/06:30am 12.0 W 24 28 1002.9 - 2.0 - - - - - - -
25/06:00am 11.9 WNW 25 29 1002.3 - 2.0 Recent precip. - - - - - -
25/05:30am 11.9 WNW 19 24 1002.2 - 1.8 - - - - - - -
25/05:00am 12.4 NW 14 17 1002.1 - 1.8 - - - - - - -
25/04:30am 12.6 NNW 11 14 1002.1 - 0.8 - - - - - - -
25/04:00am 12.7 NNW 14 17 1002.2 - 0.8 - - - - - - -
25/03:30am 12.8 NNW 10 11 1002.2 - 0.8 - - - - - - -
25/03:00am 12.8 NNW 9 10 1002.6 - 0.8 - - - - - - -
25/02:30am 12.9 NNW 12 15 1003.1 - 0.8 - - - - - - -
25/02:00am 12.8 NW 14 17 1003.6 - 0.8 - - - - - - -
25/01:30am 12.9 NW 16 22 1004.0 - 0.4 - - - - - - -
25/01:00am 12.8 NE 12 15 1003.9 - 0.4 - - - - - - -
25/12:30am 12.7 ENE 13 14 1004.0 - 0.0 - - - - - - -
25/12:00am 12.3 ENE 8 9 1004.2 - 0.0 - - - - - - -
 
Date/Time
EST
Temp
°C
Wind Pressure Rain since
9am
mm
Weather Cloud Vis
km
Sea
Height
m
Swell
Dir  Spd
kts
Gust
kts
hPa Trend Height
m
Period
s
Dir
24/11:30pm 12.1 ENE 8 10 1004.5 - 0.0 - - - - - - -
24/11:00pm 11.7 ENE 6 7 1004.7 - 0.0 - - - - - - -
24/10:30pm 11.5 E 7 8 1004.8 - 0.0 - - - - - - -
24/10:00pm 11.8 ESE 6 8 1005.1 - 0.0 - - - - - - -
24/09:30pm 11.7 ESE 6 7 1005.4 - 0.0 - - - - - - -
24/09:00pm 12.0 E 8 9 1005.6 - 0.0 - - - - - - -
24/08:30pm 12.3 E 7 8 1005.7 - 0.0 - - - - - - -
24/08:00pm 12.4 E 7 7 1005.9 - 0.0 - - - - - - -
24/07:30pm 12.8 E 8 9 1005.8 - 0.0 - - - - - - -
24/07:00pm 13.2 ENE 6 7 1005.8 - 0.0 - - - - - - -
24/06:30pm 13.1 NNE 5 7 1005.8 - 0.0 - - - - - - -
24/06:00pm 13.2 NNE 5 6 1006.0 - 0.0 - - - - - - -
24/05:30pm 13.3 N 6 7 1006.2 - 0.0 - - - - - - -
24/05:00pm 13.6 N 8 9 1006.3 - 0.0 - - - - - - -
24/04:30pm 13.5 NNE 8 9 1006.3 - 0.0 - - - - - - -
24/04:00pm 13.8 NNE 9 10 1006.1 - 0.0 - - - - - - -
24/03:30pm 14.1 NE 10 11 1006.1 - 0.0 - - - - - - -
24/03:00pm 14.2 NE 10 11 1006.1 - 0.0 - - - - - - -
24/02:30pm 14.3 NE 11 13 1006.3 - 0.0 - - - - - - -
24/02:00pm 14.3 NE 13 15 1006.6 - 0.0 - - - - - - -
24/01:30pm 14.3 NE 12 14 1007.0 - 0.0 - - - - - - -
24/01:00pm 14.3 NE 14 17 1007.4 - 0.0 - - - - - - -
24/12:30pm 14.1 NE 15 16 1007.8 - 0.0 - - - - - - -
24/12:00pm 13.8 ENE 15 17 1008.3 - 0.0 - - - - - - -
24/11:30am 13.6 ENE 16 18 1008.7 - 0.0 - - - - - - -
24/11:00am 14.0 ENE 17 19 1009.1 - 0.0 - - - - - - -
24/10:30am 13.9 ENE 18 21 1009.4 - 0.0 - - - - - - -
24/10:00am 13.6 ENE 17 19 1009.9 - 0.0 - - - - - - -
24/09:30am 13.4 ENE 17 19 1010.2 - 0.0 - - - - - - -
24/09:00am 13.2 ENE 15 18 1010.5 - 0.0 - - - - - - -
24/08:30am 12.7 E 10 12 1010.8 - 0.0 - - - - - - -
24/08:00am 12.0 E 7 8 1011.0 - 0.0 - - - - - - -
24/07:30am 10.8 SSE 6 7 1011.3 - 0.0 - - - - - - -
24/07:00am 10.5 SE 6 9 1011.4 - 0.0 - - - - - - -
24/06:30am 9.9 SSE 7 8 1011.4 - 0.0 - - - - - - -
24/06:00am 9.3 SSE 8 9 1011.3 - 0.0 - - - - - - -
24/05:30am 9.2 SSE 8 10 1011.4 - 0.0 - - - - - - -
24/05:00am 9.3 SSE 10 11 1011.4 - 0.0 - - - - - - -
24/04:30am 9.0 SSE 8 10 1011.4 - 0.0 - - - - - - -
24/04:00am 9.0 SSE 8 10 1011.6 - 0.0 - - - - - - -
24/03:30am 9.1 SSE 8 10 1011.7 - 0.0 - - - - - - -
24/03:00am 9.0 SSE 8 9 1012.0 - 0.0 - - - - - - -
24/02:30am 9.2 SSE 8 9 1012.6 - 0.0 - - - - - - -
24/02:00am 8.7 SSE 5 7 1012.9 - 0.0 - - - - - - -
24/01:30am 8.8 SE 6 7 1013.2 - 0.0 - - - - - - -
24/01:00am 9.3 SE 6 7 1013.3 - 0.0 - - - - - - -
24/12:30am 9.6 SSE 7 8 1013.4 - 0.0 - - - - - - -
24/12:00am 9.6 SSE 6 7 1013.6 - 0.0 - - - - - - -
 
Date/Time
EST
Temp
°C
Wind Pressure Rain since
9am
mm
Weather Cloud Vis
km
Sea
Height
m
Swell
Dir  Spd
kts
Gust
kts
hPa Trend Height
m
Period
s
Dir
23/11:30pm 10.3 SE 6 7 1013.7 - 0.0 - - - - - - -
23/11:00pm 10.8 SE 8 9 1013.9 - 0.0 - - - - - - -
23/10:30pm 10.9 SE 6 7 1014.2 - 0.0 - - - - - - -
23/10:00pm 10.7 SE 6 7 1014.4 - 0.0 - - - - - - -
23/09:30pm 11.0 ESE 5 6 1014.5 - 0.0 - - - - - - -
23/09:00pm 11.4 E 6 8 1014.6 - 0.0 - - - - - - -
23/08:30pm 12.3 ENE 6 8 1014.7 - 0.0 - - - - - - -
23/08:00pm 12.6 NE 5 5 1014.8 - 0.0 - - - - - - -
23/07:30pm 12.6 NNE 4 4 1014.7 - 0.0 - - - - - - -
23/07:00pm 12.8 N 6 6 1014.6 - 0.0 - - - - - - -
23/06:30pm 12.8 N 6 7 1014.5 - 0.0 - - - - - - -
23/06:00pm 13.0 N 6 7 1014.3 - 0.0 - - - - - - -
23/05:30pm 13.1 N 7 8 1014.3 - 0.0 - - - - - - -
23/05:00pm 13.8 N 6 7 1014.2 - 0.0 - - - - - - -
23/04:30pm 14.1 NNW 6 7 1014.3 - 0.0 - - - - - - -
23/04:00pm 14.5 N 6 7 1014.3 - 0.0 - - - - - - -
23/03:30pm 14.3 NNW 6 7 1014.5 - 0.0 - - - - - - -
23/03:00pm 14.8 NW 7 8 1014.7 - 0.0 - - - - - - -
23/02:30pm 14.9 NNW 9 10 1014.8 - 0.0 - - - - - - -
23/02:00pm 15.3 N 9 10 1015.0 - 0.0 - - - - - - -
23/01:30pm 14.5 N 10 11 1015.2 - 0.0 - - - - - - -
23/01:00pm 14.4 N 9 10 1015.6 - 0.0 - - - - - - -
23/12:30pm 14.1 NNE 9 11 1015.8 - 0.0 - - - - - - -
23/12:00pm 14.5 NNE 9 11 1016.1 - 0.0 - - - - - - -
23/11:30am 14.1 NE 9 9 1016.4 - 0.0 - - - - - - -
23/11:00am 13.9 NE 8 9 1016.6 - 0.0 - - - - - - -
23/10:30am 13.8 NE 9 10 1016.9 - 0.0 - - - - - - -
23/10:00am 13.9 NNE 7 8 1017.1 - 0.0 - - - - - - -
23/09:30am 13.4 NNE 8 8 1017.1 - 0.0 - - - - - - -
23/09:00am 13.3 SSE 9 11 1017.1 - 0.0 - - - - - - -
23/08:30am 12.2 S 10 12 1017.1 - 0.0 - - - - - - -
23/08:00am 11.6 SSE 8 10 1017.1 - 0.0 - - - - - - -
23/07:30am 10.9 SSE 9 10 1017.1 - 0.0 - - - - - - -
23/07:00am 10.2 SSE 9 10 1017.0 - 0.0 - - - - - - -
23/06:30am 9.1 SSE 7 9 1016.7 - 0.0 - - - - - - -
23/06:00am 9.3 SSE 9 10 1016.5 - 0.0 - - - - - - -
23/05:30am 10.2 SSE 9 11 1016.3 - 0.0 - - - - - - -
23/05:00am 10.0 SSE 9 11 1016.0 - 0.0 - - - - - - -
23/04:30am 10.1 SSE 9 11 1015.8 - 0.0 - - - - - - -
23/04:00am 9.9 SSE 8 9 1015.8 - 0.0 - - - - - - -
23/03:30am 10.0 SSE 7 10 1015.8 - 0.0 - - - - - - -
23/03:00am 10.1 SSE 8 10 1015.9 - 0.0 - - - - - - -
23/02:30am 10.1 SSE 8 10 1015.8 - 0.0 - - - - - - -
23/02:00am 10.6 SSE 8 9 1016.0 - 0.0 - - - - - - -
23/01:30am 10.5 SSE 8 9 1016.1 - 0.0 - - - - - - -
23/01:00am 10.6 SSE 7 8 1016.1 - 0.0 - - - - - - -
23/12:30am 11.1 S 8 9 1016.1 - 0.0 - - - - - - -
23/12:00am 10.4 SSE 7 9 1016.2 - 0.0 - - - - - - -
 
Date/Time
EST
Temp
°C
Wind Pressure Rain since
9am
mm
Weather Cloud Vis
km
Sea
Height
m
Swell
Dir  Spd
kts
Gust
kts
hPa Trend Height
m
Period
s
Dir
22/11:30pm 11.3 SE 7 8 1016.1 - 0.0 - - - - - - -
22/11:00pm 11.1 SSE 8 8 1016.2 - 0.0 - - - - - - -
22/10:30pm 10.9 SE 7 8 1016.3 - 0.0 - - - - - - -
22/10:00pm 12.4 ENE 6 7 1016.2 - 0.0 - - - - - - -
22/09:30pm 12.8 NNE 9 11 1016.1 - 0.0 - - - - - - -
22/09:00pm 12.8 NE 9 11 1016.0 - 0.0 - - - - - - -
22/08:30pm 12.9 NNE 8 10 1015.9 - 0.0 - - - - - - -
22/08:00pm 12.9 NNE 9 10 1015.7 - 0.0 - - - - - - -
22/07:30pm 13.0 N 5 7 1015.6 - 0.0 - - - - - - -
22/07:00pm 13.2 NNE 8 9 1015.4 - 0.0 - - - - - - -
22/06:30pm 13.4 WNW 9 11 1015.0 - 0.0 - - - - - - -
22/06:00pm 13.5 WNW 9 10 1014.8 - 0.0 - - - - - - -
22/05:30pm 13.8 WNW 11 12 1014.3 - 0.0 - - - - - - -
22/05:00pm 14.5 W 9 12 1013.9 - 0.0 - - - - - - -
22/04:30pm 15.0 WNW 10 11 1013.6 - 0.0 - - - - - - -
22/04:00pm 14.7 W 13 14 1013.3 - 0.0 - - - - - - -
22/03:30pm 15.4 W 12 14 1013.2 - 0.0 - - - - - - -
22/03:00pm 15.8 WNW 12 13 1013.1 - 0.0 - - - - - - -
22/02:30pm 17.5 E 5 8 1013.0 - 0.0 - - - - - - -
22/02:00pm 17.4 S 8 10 1012.9 - 0.0 - - - - - - -

Other Formats:

Comma delimited format used in spreadsheet applications
http://www.bom.gov.au/fwo/IDV60701/IDV60701.95964.axf

JavaScript Object Notation format (JSON) in row-major order
http://www.bom.gov.au/fwo/IDV60701/IDV60701.95964.json